createdAt,value
2023-05-09T00:00:55.699Z,1.52
2023-05-09T00:03:23.472Z,1.05
2023-05-09T00:05:52.773Z,0.82
2023-05-09T00:08:20.484Z,0.80
2023-05-09T00:10:48.380Z,1.05
2023-05-09T00:13:16.177Z,0.93
2023-05-09T00:15:44.221Z,0.93
2023-05-09T00:18:12.106Z,0.70
2023-05-09T00:20:40.846Z,1.25
2023-05-09T00:23:09.892Z,0.63
2023-05-09T00:25:37.719Z,0.88
2023-05-09T00:28:06.416Z,0.77
2023-05-09T00:30:34.084Z,0.75
2023-05-09T00:33:02.213Z,0.77
2023-05-09T00:35:32.112Z,1.52
2023-05-09T00:38:00.160Z,0.90
2023-05-09T00:40:29.457Z,0.90
2023-05-09T00:42:58.593Z,1.13
2023-05-09T00:45:26.622Z,1.08
2023-05-09T00:47:54.861Z,1.08
2023-05-09T00:50:22.607Z,0.90
2023-05-09T00:52:51.858Z,1.27
2023-05-09T00:55:20.345Z,0.98
2023-05-09T00:57:49.728Z,1.00
2023-05-09T01:00:19.485Z,1.02
2023-05-09T01:02:53.345Z,0.90
2023-05-09T01:05:24.808Z,0.88
2023-05-09T01:08:05.212Z,1.40
2023-05-09T01:10:44.063Z,1.10
2023-05-09T01:13:25.028Z,1.60
2023-05-09T01:15:59.362Z,0.82
2023-05-09T01:18:41.091Z,0.52
2023-05-09T01:21:14.574Z,1.27
2023-05-09T01:24:33.093Z,1.05
2023-05-09T01:27:38.524Z,1.27
2023-05-09T01:30:12.640Z,1.35
2023-05-09T01:32:43.823Z,1.63
2023-05-09T01:35:17.181Z,1.10
2023-05-09T01:37:51.135Z,1.02
2023-05-09T01:40:22.109Z,1.23
2023-05-09T01:42:56.254Z,1.55
2023-05-09T01:45:28.373Z,0.77
2023-05-09T01:47:58.390Z,0.88
2023-05-09T01:50:27.910Z,1.05
2023-05-09T01:52:58.634Z,1.02
2023-05-09T01:55:30.409Z,1.13
2023-05-09T01:58:00.484Z,0.73
2023-05-09T02:00:30.264Z,1.20
2023-05-09T02:02:59.492Z,1.23
2023-05-09T02:05:29.969Z,1.10
2023-05-09T02:07:59.378Z,1.27
2023-05-09T02:10:29.176Z,1.15
2023-05-09T02:12:57.810Z,1.08
2023-05-09T02:15:26.951Z,1.10
2023-05-09T02:17:56.099Z,1.30
2023-05-09T02:20:23.943Z,1.33
2023-05-09T02:22:51.902Z,1.30
2023-05-09T02:25:21.234Z,1.10
2023-05-09T02:27:49.280Z,1.02
2023-05-09T02:30:25.077Z,1.52
2023-05-09T02:33:00.221Z,0.98
2023-05-09T02:35:29.946Z,1.20
2023-05-09T02:38:00.991Z,1.30
2023-05-09T02:40:31.024Z,1.17
2023-05-09T02:42:58.820Z,1.02
2023-05-09T02:45:27.019Z,1.10
2023-05-09T02:47:54.955Z,1.10
2023-05-09T02:50:24.175Z,0.95
2023-05-09T02:52:51.990Z,1.13
2023-05-09T02:55:19.774Z,1.30
2023-05-09T02:57:47.470Z,1.50
2023-05-09T03:00:17.898Z,1.20
2023-05-09T03:02:45.821Z,1.23
2023-05-09T03:05:13.801Z,1.10
2023-05-09T03:07:42.996Z,1.05
2023-05-09T03:10:12.493Z,1.65
2023-05-09T03:12:40.588Z,1.70
2023-05-09T03:15:10.048Z,1.52
2023-05-09T03:17:38.028Z,1.42
2023-05-09T03:20:10.229Z,1.20
2023-05-09T03:22:37.943Z,1.20
2023-05-09T03:25:07.950Z,1.30
2023-05-09T03:27:35.673Z,1.15
2023-05-09T03:30:03.556Z,1.27
2023-05-09T03:32:31.373Z,1.15
2023-05-09T03:34:59.067Z,1.58
2023-05-09T03:37:27.270Z,1.02
2023-05-09T03:39:55.142Z,1.17
2023-05-09T03:42:24.188Z,1.33
2023-05-09T03:44:52.706Z,1.15
2023-05-09T03:47:20.408Z,1.27
2023-05-09T03:49:48.146Z,1.20
2023-05-09T03:52:16.012Z,1.23
2023-05-09T03:54:43.719Z,1.15
2023-05-09T03:57:11.416Z,1.52
2023-05-09T03:59:40.691Z,1.23
2023-05-09T04:02:08.728Z,1.70
2023-05-09T04:04:36.534Z,1.75
2023-05-09T04:07:04.306Z,1.63
2023-05-09T04:09:32.167Z,1.88
2023-05-09T04:11:59.874Z,1.60
2023-05-09T04:14:27.608Z,1.45
2023-05-09T04:16:56.772Z,1.63
2023-05-09T04:19:24.915Z,1.38
2023-05-09T04:21:52.654Z,1.60
2023-05-09T04:24:20.435Z,1.60
2023-05-09T04:26:48.250Z,1.60
2023-05-09T04:29:16.337Z,1.75
2023-05-09T04:31:44.281Z,1.92
2023-05-09T04:34:13.553Z,2.05
2023-05-09T04:36:41.439Z,1.60
2023-05-09T04:39:10.458Z,1.75
2023-05-09T04:41:38.216Z,1.90
2023-05-09T04:44:06.564Z,1.92
2023-05-09T04:46:34.365Z,1.92
2023-05-09T04:49:02.124Z,1.88
2023-05-09T04:51:31.224Z,1.73
2023-05-09T04:53:58.975Z,1.98
2023-05-09T04:56:26.761Z,1.98
2023-05-09T04:58:54.456Z,1.80
2023-05-09T05:01:22.209Z,1.73
2023-05-09T05:03:49.902Z,2.10
2023-05-09T05:06:17.786Z,1.65
2023-05-09T05:08:46.809Z,1.80
2023-05-09T05:11:14.531Z,2.13
2023-05-09T05:13:42.406Z,1.77
2023-05-09T05:16:10.223Z,1.70
2023-05-09T05:18:37.959Z,1.92
2023-05-09T05:21:05.864Z,2.20
2023-05-09T05:23:33.588Z,1.65
2023-05-09T05:26:02.758Z,1.98
2023-05-09T05:28:30.515Z,1.67
2023-05-09T05:30:58.179Z,2.05
2023-05-09T05:33:25.931Z,1.77
2023-05-09T05:35:53.630Z,1.73
2023-05-09T05:38:21.376Z,1.67
2023-05-09T05:40:49.100Z,1.58
2023-05-09T05:43:18.402Z,1.33
2023-05-09T05:45:46.178Z,1.33
2023-05-09T05:48:13.876Z,1.85
2023-05-09T05:50:41.543Z,1.33
2023-05-09T05:53:09.325Z,1.23
2023-05-09T05:55:37.014Z,1.65
2023-05-09T05:58:04.688Z,1.45
2023-05-09T06:00:33.996Z,1.67
2023-05-09T06:03:02.105Z,1.35
2023-05-09T06:05:31.121Z,1.13
2023-05-09T06:08:01.313Z,1.45
2023-05-09T06:10:29.070Z,1.10
2023-05-09T06:12:56.925Z,1.80
2023-05-09T06:15:25.014Z,1.70
2023-05-09T06:17:55.003Z,1.10
2023-05-09T06:20:22.737Z,1.75
2023-05-09T06:22:50.506Z,1.25
2023-05-09T06:25:18.255Z,1.42
2023-05-09T06:27:45.944Z,1.50
2023-05-09T06:30:25.777Z,1.00
2023-05-09T06:32:57.887Z,1.42
2023-05-09T06:35:25.649Z,0.82
2023-05-09T06:37:53.318Z,1.17
2023-05-09T06:40:21.275Z,1.50
2023-05-09T06:42:49.350Z,1.05
2023-05-09T06:45:17.724Z,1.13
2023-05-09T06:47:45.732Z,1.33
2023-05-09T06:50:14.769Z,0.93
2023-05-09T06:52:42.488Z,1.48
2023-05-09T06:55:11.968Z,1.15
2023-05-09T06:57:40.466Z,0.85
2023-05-09T07:00:10.675Z,1.08
2023-05-09T07:02:41.759Z,1.23
2023-05-09T07:05:11.033Z,1.08
2023-05-09T07:07:40.697Z,0.90
2023-05-09T07:10:12.309Z,0.90
2023-05-09T07:12:41.350Z,0.65
2023-05-09T07:15:11.058Z,0.80
2023-05-09T07:17:39.040Z,0.85
2023-05-09T07:20:08.550Z,0.95
2023-05-09T07:22:37.328Z,0.73
2023-05-09T07:25:09.492Z,0.93
2023-05-09T07:27:38.027Z,0.90
2023-05-09T07:30:07.517Z,0.57
2023-05-09T07:32:35.389Z,0.80
2023-05-09T07:35:03.552Z,0.80
2023-05-09T07:37:32.872Z,0.80
2023-05-09T07:40:00.712Z,1.40
2023-05-09T07:42:30.525Z,1.10
2023-05-09T07:44:59.010Z,1.02
2023-05-09T07:47:27.042Z,0.73
2023-05-09T07:49:54.781Z,0.82
2023-05-09T07:52:22.521Z,1.27
2023-05-09T07:54:50.307Z,0.93
2023-05-09T07:57:18.025Z,1.17
2023-05-09T07:59:47.150Z,0.93
2023-05-09T08:02:14.941Z,0.75
2023-05-09T08:04:42.769Z,1.05
2023-05-09T08:07:11.662Z,1.02
2023-05-09T08:09:39.451Z,1.33
2023-05-09T08:12:07.913Z,0.88
2023-05-09T08:14:35.650Z,0.75
2023-05-09T08:17:04.747Z,1.13
2023-05-09T08:19:32.522Z,1.00
2023-05-09T08:22:00.522Z,1.10
2023-05-09T08:24:28.625Z,0.85
2023-05-09T08:26:56.749Z,0.80
2023-05-09T08:29:24.464Z,0.70
2023-05-09T08:31:52.261Z,0.95
2023-05-09T08:34:21.484Z,0.95
2023-05-09T08:36:49.211Z,0.60
2023-05-09T08:39:17.086Z,0.85
2023-05-09T08:41:45.365Z,0.55
2023-05-09T08:44:14.146Z,0.60
2023-05-09T08:46:45.514Z,0.98
2023-05-09T08:49:14.076Z,0.90
2023-05-09T08:51:43.669Z,0.85
2023-05-09T08:54:12.187Z,0.82
2023-05-09T08:56:40.673Z,0.90
2023-05-09T08:59:08.900Z,0.82
2023-05-09T09:01:37.179Z,1.02
2023-05-09T09:04:11.596Z,0.98
2023-05-09T09:06:41.080Z,1.02
2023-05-09T09:09:10.344Z,1.10
2023-05-09T09:11:39.542Z,0.95
2023-05-09T09:14:13.636Z,0.88
2023-05-09T09:16:45.665Z,0.93
2023-05-09T09:19:18.035Z,0.57
2023-05-09T09:21:47.844Z,0.98
2023-05-09T09:24:23.632Z,0.93
2023-05-09T09:26:52.816Z,1.10
2023-05-09T09:29:22.769Z,1.20
2023-05-09T09:31:55.539Z,1.00
2023-05-09T09:34:24.570Z,0.52
2023-05-09T09:36:52.385Z,0.63
2023-05-09T09:39:21.949Z,1.02
2023-05-09T09:41:49.906Z,1.05
2023-05-09T09:44:20.233Z,0.90
2023-05-09T09:46:50.400Z,1.50
2023-05-09T09:49:20.708Z,0.80
2023-05-09T09:51:52.262Z,0.90
2023-05-09T09:54:22.353Z,1.20
2023-05-09T09:56:54.499Z,1.20
2023-05-09T09:59:25.564Z,1.60
2023-05-09T10:01:59.517Z,0.80
2023-05-09T10:04:31.607Z,1.10
2023-05-09T10:07:01.145Z,1.25
2023-05-09T10:09:30.575Z,1.23
2023-05-09T10:12:04.536Z,0.80
2023-05-09T10:14:35.457Z,0.68
2023-05-09T10:17:05.983Z,0.70
2023-05-09T10:19:34.438Z,0.88
2023-05-09T10:22:08.557Z,1.20
2023-05-09T10:24:48.798Z,0.95
2023-05-09T10:27:23.249Z,0.85
2023-05-09T10:30:03.855Z,0.75
2023-05-09T10:32:42.606Z,0.90
2023-05-09T10:35:17.142Z,1.20
2023-05-09T10:37:46.451Z,1.02
2023-05-09T10:40:16.586Z,0.80
2023-05-09T10:42:44.965Z,1.02
2023-05-09T10:45:14.076Z,1.13
2023-05-09T10:47:44.820Z,1.02
2023-05-09T10:50:14.121Z,0.70
2023-05-09T10:53:07.921Z,0.50
2023-05-09T10:55:51.255Z,0.60
2023-05-09T10:58:21.800Z,1.15
2023-05-09T11:00:52.135Z,0.47
2023-05-09T11:03:20.452Z,0.88
2023-05-09T11:05:50.759Z,0.93
2023-05-09T11:08:25.105Z,0.60
2023-05-09T11:13:25.107Z,0.73
2023-05-09T11:16:13.763Z,0.93
2023-05-09T11:18:53.614Z,1.20
2023-05-09T11:21:22.804Z,0.98
2023-05-09T11:23:53.820Z,1.10
2023-05-09T11:26:30.838Z,0.95
2023-05-09T11:29:01.258Z,1.15
2023-05-09T11:31:29.330Z,0.77
2023-05-09T11:34:04.752Z,0.73
2023-05-09T11:36:33.357Z,0.63
2023-05-09T11:39:04.277Z,0.70
2023-05-09T11:41:41.167Z,0.95
2023-05-09T11:44:17.457Z,0.70
2023-05-09T11:46:45.801Z,0.60
2023-05-09T11:49:13.911Z,0.55
2023-05-09T11:51:42.475Z,0.50
2023-05-09T11:54:12.270Z,0.82
2023-05-09T11:56:42.600Z,0.63
2023-05-09T11:59:13.271Z,1.00
2023-05-09T12:01:41.279Z,0.90
2023-05-09T12:04:09.346Z,0.80
2023-05-09T12:06:37.748Z,1.30
2023-05-09T12:09:06.078Z,1.02
2023-05-09T12:11:34.924Z,0.52
2023-05-09T12:14:04.226Z,0.80
2023-05-09T12:16:32.006Z,0.90
2023-05-09T12:19:00.085Z,0.55
2023-05-09T12:21:28.276Z,0.70
2023-05-09T12:23:57.422Z,0.73
2023-05-09T12:26:25.466Z,0.50
2023-05-09T12:28:53.281Z,0.73
2023-05-09T12:31:23.637Z,0.80
2023-05-09T12:33:51.761Z,0.90
2023-05-09T12:36:19.475Z,0.70
2023-05-09T12:38:55.083Z,0.55
2023-05-09T12:41:36.901Z,0.90
2023-05-09T12:44:07.251Z,0.70
2023-05-09T12:46:37.552Z,0.88
2023-05-09T12:49:05.809Z,0.60
2023-05-09T12:51:33.592Z,0.68
2023-05-09T12:54:05.851Z,0.60
2023-05-09T12:56:36.244Z,0.70
2023-05-09T12:59:03.981Z,0.60
2023-05-09T13:01:31.808Z,1.08
2023-05-09T13:04:07.215Z,1.40
2023-05-09T13:06:35.709Z,0.98
2023-05-09T13:09:06.109Z,1.02
2023-05-09T13:11:34.395Z,1.00
2023-05-09T13:14:04.068Z,1.23
2023-05-09T13:16:31.994Z,0.93
2023-05-09T13:19:01.396Z,0.75
2023-05-09T13:21:30.519Z,0.60
2023-05-09T13:23:58.371Z,0.85
2023-05-09T13:26:27.166Z,0.82
2023-05-09T13:28:55.012Z,1.10
2023-05-09T13:31:23.727Z,0.90
2023-05-09T13:33:52.622Z,0.82
2023-05-09T13:36:21.151Z,1.20
2023-05-09T13:38:50.337Z,0.82
2023-05-09T13:41:23.502Z,1.10
2023-05-09T13:43:51.644Z,1.17
2023-05-09T13:46:19.424Z,0.73
2023-05-09T13:48:47.690Z,0.90
2023-05-09T13:51:15.530Z,0.52
2023-05-09T13:53:43.217Z,0.93
2023-05-09T13:56:12.579Z,0.70
2023-05-09T13:58:40.280Z,0.70
2023-05-09T14:01:08.130Z,0.85
2023-05-09T14:03:36.177Z,0.77
2023-05-09T14:06:04.161Z,1.10
2023-05-09T14:08:32.196Z,1.02
2023-05-09T14:10:59.938Z,0.70
2023-05-09T14:13:29.028Z,0.88
2023-05-09T14:15:56.855Z,0.73
2023-05-09T14:18:24.786Z,0.75
2023-05-09T14:20:52.628Z,0.70
2023-05-09T14:23:20.351Z,0.65
2023-05-09T14:25:48.077Z,0.73
2023-05-09T14:28:15.887Z,1.00
2023-05-09T14:30:44.911Z,0.90
2023-05-09T14:33:12.672Z,0.80
2023-05-09T14:35:41.639Z,0.57
2023-05-09T14:38:09.672Z,1.05
2023-05-09T14:40:37.521Z,1.00
2023-05-09T14:43:05.821Z,0.90
2023-05-09T14:45:34.372Z,0.88
2023-05-09T14:48:04.129Z,0.85
2023-05-09T14:50:33.263Z,0.80
2023-05-09T14:53:01.956Z,0.93
2023-05-09T14:55:31.051Z,1.10
2023-05-09T14:57:58.850Z,1.30
2023-05-09T15:00:28.381Z,1.98
2023-05-09T15:02:56.781Z,2.42
2023-05-09T15:05:26.047Z,1.88
2023-05-09T15:07:53.804Z,1.80
2023-05-09T15:10:21.543Z,1.33
2023-05-09T15:12:49.282Z,1.65
2023-05-09T15:15:19.519Z,1.50
2023-05-09T15:17:47.962Z,1.65
2023-05-09T15:20:18.215Z,1.58
2023-05-09T15:22:49.958Z,1.45
2023-05-09T15:25:19.526Z,1.52
2023-05-09T15:27:50.185Z,1.60
2023-05-09T15:30:18.251Z,1.25
2023-05-09T15:32:46.781Z,1.88
2023-05-09T15:35:15.725Z,1.70
2023-05-09T15:37:43.612Z,1.50
2023-05-09T15:40:13.906Z,1.48
2023-05-09T15:42:41.903Z,1.17
2023-05-09T15:45:10.566Z,1.42
2023-05-09T15:47:38.361Z,1.50
2023-05-09T15:50:08.608Z,1.45
2023-05-09T15:52:36.368Z,1.80
2023-05-09T15:55:04.397Z,1.88
2023-05-09T15:57:33.500Z,1.45
2023-05-09T16:00:01.179Z,1.58
2023-05-09T16:02:29.336Z,2.13
2023-05-09T16:04:57.228Z,1.38
2023-05-09T16:07:27.206Z,1.23
2023-05-09T16:09:54.931Z,1.85
2023-05-09T16:12:22.638Z,1.70
2023-05-09T16:14:51.659Z,1.50
2023-05-09T16:17:19.418Z,1.38
2023-05-09T16:19:47.141Z,1.58
2023-05-09T16:22:15.075Z,1.45
2023-05-09T16:24:43.824Z,2.13
2023-05-09T16:27:11.600Z,1.77
2023-05-09T16:29:39.318Z,1.52
2023-05-09T16:32:09.105Z,1.83
2023-05-09T16:34:37.242Z,1.83
2023-05-09T16:37:04.999Z,1.77
2023-05-09T16:39:33.008Z,2.15
2023-05-09T16:42:00.718Z,1.80
2023-05-09T16:44:28.736Z,1.65
2023-05-09T16:46:56.417Z,2.25
2023-05-09T16:49:25.490Z,2.05
2023-05-09T16:51:53.250Z,2.28
2023-05-09T16:54:21.271Z,1.80
2023-05-09T16:56:49.081Z,1.77
2023-05-09T16:59:17.401Z,1.75
2023-05-09T17:01:46.325Z,1.88
2023-05-09T17:04:14.543Z,1.98
2023-05-09T17:06:43.645Z,2.17
2023-05-09T17:09:11.366Z,2.00
2023-05-09T17:11:39.173Z,1.80
2023-05-09T17:14:06.850Z,2.28
2023-05-09T17:16:35.913Z,2.05
2023-05-09T17:19:05.859Z,2.10
2023-05-09T17:21:34.104Z,1.70
2023-05-09T17:24:03.132Z,2.15
2023-05-09T17:26:30.945Z,1.80
2023-05-09T17:28:58.634Z,1.45
2023-05-09T17:31:26.655Z,2.15
2023-05-09T17:33:54.430Z,1.65
2023-05-09T17:36:22.229Z,1.38
2023-05-09T17:38:49.991Z,1.42
2023-05-09T17:41:19.286Z,1.70
2023-05-09T17:43:47.118Z,1.40
2023-05-09T17:46:15.841Z,1.52
2023-05-09T17:48:43.578Z,1.80
2023-05-09T17:51:11.289Z,1.65
2023-05-09T17:53:39.067Z,1.83
2023-05-09T17:56:06.869Z,1.70
2023-05-09T17:58:35.962Z,1.75
2023-05-09T18:01:03.774Z,1.40
2023-05-09T18:03:32.346Z,1.40
2023-05-09T18:06:01.660Z,1.67
2023-05-09T18:08:29.941Z,1.58
2023-05-09T18:10:58.471Z,1.88
2023-05-09T18:13:26.277Z,1.42
2023-05-09T18:15:59.466Z,1.30
2023-05-09T18:18:28.253Z,2.08
2023-05-09T18:20:56.741Z,1.80
2023-05-09T18:23:25.483Z,1.70
2023-05-09T18:25:54.135Z,1.73
2023-05-09T18:28:24.566Z,2.10
2023-05-09T18:30:54.304Z,1.30
2023-05-09T18:33:25.391Z,1.75
2023-05-09T18:35:54.588Z,1.70
2023-05-09T18:38:23.132Z,1.92
2023-05-09T18:40:51.889Z,1.90
2023-05-09T18:43:20.770Z,1.67
2023-05-09T18:45:49.049Z,1.77
2023-05-09T18:48:17.206Z,1.38
2023-05-09T18:50:47.061Z,2.10
2023-05-09T18:53:14.849Z,2.00
2023-05-09T18:55:42.692Z,2.17
2023-05-09T18:58:10.583Z,1.88
2023-05-09T19:00:39.440Z,1.50
2023-05-09T19:03:07.657Z,2.00
2023-05-09T19:05:35.482Z,2.05
2023-05-09T19:08:04.716Z,1.88
2023-05-09T19:10:33.586Z,1.55
2023-05-09T19:13:01.608Z,1.63
2023-05-09T19:15:30.079Z,1.75
2023-05-09T19:17:57.960Z,1.98
2023-05-09T19:20:26.381Z,1.42
2023-05-09T19:22:54.068Z,1.25
2023-05-09T19:25:23.275Z,1.15
2023-05-09T19:27:52.839Z,1.17
2023-05-09T19:30:21.095Z,1.25
2023-05-09T19:32:48.916Z,1.40
2023-05-09T19:35:16.903Z,1.50
2023-05-09T19:37:44.634Z,1.38
2023-05-09T19:40:13.002Z,1.00
2023-05-09T19:42:42.596Z,1.30
2023-05-09T19:45:11.766Z,0.68
2023-05-09T19:47:39.629Z,1.10
2023-05-09T19:50:09.077Z,0.95
2023-05-09T19:52:37.218Z,0.65
2023-05-09T19:55:06.948Z,0.95
2023-05-09T19:57:35.176Z,1.95
2023-05-09T20:00:07.007Z,0.88
2023-05-09T20:02:36.207Z,0.70
2023-05-09T20:05:04.491Z,0.70
2023-05-09T20:07:32.820Z,0.63
2023-05-09T20:10:00.565Z,0.68
2023-05-09T20:12:30.152Z,0.40
2023-05-09T20:14:58.257Z,0.77
2023-05-09T20:17:27.379Z,0.30
2023-05-09T20:19:55.155Z,0.50
2023-05-09T20:22:22.874Z,0.50
2023-05-09T20:24:50.979Z,1.20
2023-05-09T20:27:18.749Z,1.25
2023-05-09T20:29:46.594Z,0.70
2023-05-09T20:32:15.425Z,0.25
2023-05-09T20:34:44.443Z,0.45
2023-05-09T20:37:12.349Z,0.28
2023-05-09T20:39:40.100Z,0.35
2023-05-09T20:42:07.783Z,0.10
2023-05-09T20:44:35.681Z,0.30
2023-05-09T20:47:03.558Z,0.10
2023-05-09T20:49:31.290Z,0.30
2023-05-09T20:52:00.619Z,0.20
2023-05-09T20:54:28.912Z,0.50
2023-05-09T20:56:56.589Z,0.52
2023-05-09T20:59:24.326Z,0.32
2023-05-09T21:01:55.394Z,0.20
2023-05-09T21:04:23.258Z,0.25
2023-05-09T21:06:50.990Z,0.22
2023-05-09T21:09:20.090Z,0.20
2023-05-09T21:11:47.779Z,0.45
2023-05-09T21:14:15.505Z,0.38
2023-05-09T21:16:43.923Z,0.10
2023-05-09T21:19:11.748Z,0.13
2023-05-09T21:21:39.489Z,0.30
2023-05-09T21:24:09.128Z,0.20
2023-05-09T21:26:38.301Z,0.30
2023-05-09T21:29:06.527Z,0.30
2023-05-09T21:31:34.486Z,0.35
2023-05-09T21:34:02.263Z,0.22
2023-05-09T21:36:30.001Z,0.20
2023-05-09T21:38:57.730Z,0.30
2023-05-09T21:41:25.552Z,0.17
2023-05-09T21:43:54.591Z,0.38
2023-05-09T21:46:22.352Z,0.28
2023-05-09T21:48:50.435Z,0.20
2023-05-09T21:51:18.102Z,0.40
2023-05-09T21:53:46.317Z,0.32
2023-05-09T21:56:14.033Z,0.30
2023-05-09T21:58:41.746Z,0.20
2023-05-09T22:01:11.158Z,0.20
2023-05-09T22:03:38.967Z,0.30
2023-05-09T22:06:07.563Z,0.22
2023-05-09T22:08:35.243Z,0.30
2023-05-09T22:11:02.898Z,0.60
2023-05-09T22:13:30.660Z,0.22
2023-05-09T22:15:58.453Z,0.40
2023-05-09T22:18:27.699Z,0.55
2023-05-09T22:20:55.385Z,0.28
2023-05-09T22:23:23.094Z,0.50
2023-05-09T22:25:50.786Z,0.22
2023-05-09T22:28:18.768Z,0.30
2023-05-09T22:30:46.983Z,0.22
2023-05-09T22:33:14.701Z,0.20
2023-05-09T22:35:43.798Z,0.10
2023-05-09T22:38:11.502Z,0.20
2023-05-09T22:40:39.406Z,0.10
2023-05-09T22:43:07.232Z,0.50
2023-05-09T22:45:34.951Z,0.32
2023-05-09T22:48:03.495Z,0.43
2023-05-09T22:50:31.344Z,0.20
2023-05-09T22:53:00.454Z,0.25
2023-05-09T22:55:28.363Z,0.10
2023-05-09T22:57:56.187Z,0.13
2023-05-09T23:00:24.045Z,0.30
2023-05-09T23:02:51.831Z,0.20
2023-05-09T23:05:19.768Z,0.13
2023-05-09T23:07:47.541Z,0.13
2023-05-09T23:10:16.952Z,0.10
2023-05-09T23:12:44.953Z,0.10
2023-05-09T23:15:12.983Z,0.10
2023-05-09T23:17:41.417Z,0.00
2023-05-09T23:20:10.736Z,0.10
2023-05-09T23:22:38.476Z,0.20
2023-05-09T23:25:08.315Z,0.15
2023-05-09T23:27:40.422Z,0.10
2023-05-09T23:30:10.398Z,0.00
2023-05-09T23:32:38.111Z,0.10
2023-05-09T23:35:07.119Z,0.22
2023-05-09T23:37:34.836Z,0.10
2023-05-09T23:40:04.069Z,0.17
2023-05-09T23:42:31.868Z,0.00
2023-05-09T23:45:00.934Z,0.15
2023-05-09T23:47:28.732Z,0.00
2023-05-09T23:49:56.476Z,0.10
2023-05-09T23:52:24.355Z,0.00
2023-05-09T23:54:52.113Z,0.20
2023-05-09T23:57:20.025Z,0.20
2023-05-09T23:59:47.808Z,0.60
